Terminal Aerodrome Forecast
Issued by NWS Central Illinois

Home | Current Version | Previous Version | Text Only | Print | Product List | Glossary On
Versions: 1 2 3 4 5 6 7 8 9 10 11 12 13 14 15 16 17 18 19 20
805
FTUS43 KILX 271412 AAC
TAFSPI
TAF AMD
KSPI 271412Z 2714/2812 03008KT 6SM BR BKN006
     FM271500 05008KT P6SM SCT008
     FM271700 09008KT P6SM SCT030
     FM280200 11007KT 4SM SHRA BR VCTS SCT025CB OVC050
     FM280500 21008KT 5SM BR VCSH BKN025=

USA.gov is the U.S. government's official web portal to all federal, state and local government web resources and services.